createdAt,value
2022-09-16T00:00:13.845Z,15.98
2022-09-16T00:02:43.271Z,15.81
2022-09-16T00:05:12.564Z,15.89
2022-09-16T00:07:41.843Z,15.87
2022-09-16T00:10:11.987Z,15.82
2022-09-16T00:12:41.898Z,15.65
2022-09-16T00:15:12.969Z,15.73
2022-09-16T00:17:42.226Z,15.73
2022-09-16T00:20:12.118Z,15.69
2022-09-16T00:22:41.452Z,15.74
2022-09-16T00:25:11.356Z,15.56
2022-09-16T00:27:40.548Z,15.54
2022-09-16T00:30:12.797Z,15.55
2022-09-16T00:32:42.167Z,15.50
2022-09-16T00:35:12.747Z,15.51
2022-09-16T00:37:42.025Z,15.45
2022-09-16T00:40:12.343Z,15.42
2022-09-16T00:42:42.224Z,15.34
2022-09-16T00:45:19.352Z,15.33
2022-09-16T00:47:52.851Z,15.48
2022-09-16T00:50:29.251Z,15.46
2022-09-16T00:52:59.275Z,15.50
2022-09-16T00:55:33.594Z,15.48
2022-09-16T00:58:11.721Z,15.49
2022-09-16T01:00:43.014Z,15.36
2022-09-16T01:03:12.329Z,15.43
2022-09-16T01:05:41.627Z,15.41
2022-09-16T01:08:10.900Z,15.40
2022-09-16T01:10:43.683Z,15.18
2022-09-16T01:13:15.958Z,15.18
2022-09-16T01:15:56.581Z,15.20
2022-09-16T01:18:32.936Z,15.04
2022-09-16T01:21:19.446Z,15.12
2022-09-16T01:24:27.154Z,15.03
2022-09-16T01:27:46.193Z,15.13
2022-09-16T01:30:57.110Z,15.09
2022-09-16T01:33:37.992Z,15.04
2022-09-16T01:36:32.574Z,15.04
2022-09-16T01:39:19.765Z,14.97
2022-09-16T01:42:09.522Z,14.77
2022-09-16T01:44:46.173Z,14.81
2022-09-16T01:47:23.988Z,14.63
2022-09-16T01:50:04.342Z,14.65
2022-09-16T01:52:46.962Z,14.57
2022-09-16T01:55:24.154Z,14.61
2022-09-16T01:57:57.288Z,14.53
2022-09-16T02:00:26.802Z,14.52
2022-09-16T02:03:03.573Z,14.40
2022-09-16T02:05:38.548Z,14.35
2022-09-16T02:08:14.568Z,14.35
2022-09-16T02:10:50.230Z,14.32
2022-09-16T02:13:23.546Z,14.30
2022-09-16T02:15:57.505Z,14.24
2022-09-16T02:18:34.765Z,14.23
2022-09-16T02:21:10.700Z,14.12
2022-09-16T02:23:47.053Z,14.15
2022-09-16T02:26:22.888Z,14.04
2022-09-16T02:28:54.723Z,14.03
2022-09-16T02:31:29.637Z,13.95
2022-09-16T02:34:05.344Z,13.95
2022-09-16T02:36:37.389Z,13.85
2022-09-16T02:39:10.889Z,13.89
2022-09-16T02:41:41.765Z,13.80
2022-09-16T02:44:12.216Z,13.69
2022-09-16T02:46:51.240Z,13.70
2022-09-16T02:49:29.445Z,13.64
2022-09-16T02:52:05.317Z,13.59
2022-09-16T02:54:40.776Z,13.61
2022-09-16T02:57:10.655Z,13.51
2022-09-16T02:59:40.724Z,13.59
2022-09-16T03:02:10.309Z,13.60
2022-09-16T03:04:41.552Z,13.53
2022-09-16T03:07:12.959Z,13.50
2022-09-16T03:09:45.446Z,13.33
2022-09-16T03:12:52.168Z,13.46
2022-09-16T03:15:51.594Z,13.39
2022-09-16T03:18:52.392Z,13.37
2022-09-16T03:21:33.387Z,13.31
2022-09-16T03:24:12.159Z,13.33
2022-09-16T03:26:49.733Z,13.32
2022-09-16T03:29:26.739Z,13.27
2022-09-16T03:32:04.255Z,13.30
2022-09-16T03:34:39.948Z,13.24
2022-09-16T03:37:16.790Z,13.18
2022-09-16T03:39:53.772Z,13.16
2022-09-16T03:42:23.456Z,13.12
2022-09-16T03:44:52.753Z,13.20
2022-09-16T03:47:22.010Z,13.15
2022-09-16T03:49:51.885Z,13.13
2022-09-16T03:52:22.423Z,13.10
2022-09-16T03:54:51.566Z,13.04
2022-09-16T03:57:20.754Z,13.07
2022-09-16T03:59:49.918Z,13.04
2022-09-16T04:02:19.021Z,13.02
2022-09-16T04:04:48.259Z,12.96
2022-09-16T04:07:17.464Z,12.95
2022-09-16T04:09:48.001Z,12.82
2022-09-16T04:12:17.208Z,12.90
2022-09-16T04:14:46.407Z,12.84
2022-09-16T04:17:15.539Z,12.74
2022-09-16T04:19:44.843Z,12.84
2022-09-16T04:22:14.031Z,12.84
2022-09-16T04:24:43.227Z,12.81
2022-09-16T04:27:13.912Z,12.70
2022-09-16T04:29:43.091Z,12.78
2022-09-16T04:32:12.316Z,12.78
2022-09-16T04:34:41.932Z,12.72
2022-09-16T04:37:11.096Z,12.73
2022-09-16T04:39:40.223Z,12.71
2022-09-16T04:42:12.472Z,12.58
2022-09-16T04:44:43.006Z,12.65
2022-09-16T04:47:12.195Z,12.66
2022-09-16T04:49:41.390Z,12.55
2022-09-16T04:52:11.131Z,12.62
2022-09-16T04:54:40.290Z,12.61
2022-09-16T04:57:09.740Z,12.59
2022-09-16T04:59:38.925Z,12.49
2022-09-16T05:02:09.468Z,12.54
2022-09-16T05:04:38.636Z,12.55
2022-09-16T05:07:09.141Z,12.44
2022-09-16T05:09:38.328Z,12.46
2022-09-16T05:12:08.986Z,12.40
2022-09-16T05:14:38.438Z,12.38
2022-09-16T05:17:09.008Z,12.41
2022-09-16T05:19:38.102Z,12.38
2022-09-16T05:22:07.455Z,12.27
2022-09-16T05:24:37.401Z,12.28
2022-09-16T05:27:07.065Z,12.33
2022-09-16T05:29:36.259Z,12.35
2022-09-16T05:32:05.554Z,12.35
2022-09-16T05:34:37.538Z,12.32
2022-09-16T05:37:06.756Z,12.30
2022-09-16T05:39:36.086Z,12.21
2022-09-16T05:42:05.514Z,12.24
2022-09-16T05:44:34.626Z,12.20
2022-09-16T05:47:04.331Z,12.12
2022-09-16T05:49:33.471Z,12.10
2022-09-16T05:52:04.399Z,12.01
2022-09-16T05:54:33.639Z,12.13
2022-09-16T05:57:07.205Z,12.07
2022-09-16T05:59:36.806Z,12.08
2022-09-16T06:02:06.065Z,12.01
2022-09-16T06:04:35.766Z,11.93
2022-09-16T06:07:07.345Z,11.90
2022-09-16T06:09:36.976Z,11.75
2022-09-16T06:12:06.804Z,11.95
2022-09-16T06:14:35.879Z,11.97
2022-09-16T06:17:05.516Z,11.81
2022-09-16T06:19:34.653Z,12.01
2022-09-16T06:22:05.246Z,11.94
2022-09-16T06:24:34.402Z,11.91
2022-09-16T06:27:03.751Z,11.86
2022-09-16T06:29:33.029Z,11.97
2022-09-16T06:32:02.560Z,11.99
2022-09-16T06:34:32.033Z,11.99
2022-09-16T06:37:01.417Z,12.02
2022-09-16T06:39:36.478Z,12.07
2022-09-16T06:42:08.199Z,12.10
2022-09-16T06:44:44.439Z,12.09
2022-09-16T06:47:13.867Z,12.13
2022-09-16T06:49:43.294Z,12.21
2022-09-16T06:52:12.470Z,12.46
2022-09-16T06:54:43.199Z,12.60
2022-09-16T06:57:14.921Z,12.91
2022-09-16T06:59:44.045Z,13.14
2022-09-16T07:02:13.671Z,13.40
2022-09-16T07:04:45.253Z,13.56
2022-09-16T07:07:15.318Z,13.76
2022-09-16T07:09:47.308Z,14.07
2022-09-16T07:12:19.623Z,14.31
2022-09-16T07:14:48.977Z,14.44
2022-09-16T07:17:18.496Z,14.63
2022-09-16T07:19:49.247Z,14.84
2022-09-16T07:22:18.391Z,15.11
2022-09-16T07:24:48.916Z,15.20
2022-09-16T07:27:18.046Z,15.39
2022-09-16T07:29:47.179Z,15.42
2022-09-16T07:32:16.303Z,15.70
2022-09-16T07:34:45.408Z,15.67
2022-09-16T07:37:14.945Z,15.96
2022-09-16T07:39:44.399Z,16.22
2022-09-16T07:42:15.295Z,16.32
2022-09-16T07:44:44.534Z,16.43
2022-09-16T07:47:15.296Z,16.62
2022-09-16T07:49:45.926Z,16.53
2022-09-16T07:52:16.690Z,16.63
2022-09-16T07:54:46.055Z,16.75
2022-09-16T07:57:17.489Z,17.23
2022-09-16T07:59:46.681Z,17.05
2022-09-16T08:02:15.931Z,17.08
2022-09-16T08:04:45.450Z,17.13
2022-09-16T08:07:14.561Z,17.22
2022-09-16T08:09:48.558Z,17.13
2022-09-16T08:12:21.138Z,17.26
2022-09-16T08:14:50.277Z,17.63
2022-09-16T08:17:19.510Z,17.80
2022-09-16T08:19:48.767Z,17.72
2022-09-16T08:22:17.923Z,17.69
2022-09-16T08:24:47.054Z,17.70
2022-09-16T08:27:16.229Z,17.83
2022-09-16T08:29:47.131Z,18.00
2022-09-16T08:32:16.277Z,18.18
2022-09-16T08:34:45.463Z,18.14
2022-09-16T08:37:14.696Z,18.25
2022-09-16T08:39:43.770Z,18.32
2022-09-16T08:42:47.879Z,18.28
2022-09-16T08:45:28.827Z,18.47
2022-09-16T08:48:15.670Z,18.73
2022-09-16T08:50:50.249Z,18.94
2022-09-16T08:53:28.634Z,18.95
2022-09-16T08:55:58.576Z,19.04
2022-09-16T08:58:32.686Z,19.11
2022-09-16T09:01:17.216Z,19.29
2022-09-16T09:03:50.240Z,19.56
2022-09-16T09:06:40.162Z,19.78
2022-09-16T09:09:27.907Z,20.04
2022-09-16T09:12:08.006Z,20.22
2022-09-16T09:15:01.005Z,20.40
2022-09-16T09:17:48.549Z,20.59
2022-09-16T09:20:31.253Z,20.41
2022-09-16T09:23:23.965Z,20.37
2022-09-16T09:25:59.833Z,20.38
2022-09-16T09:29:04.785Z,20.37
2022-09-16T09:31:45.095Z,20.81
2022-09-16T09:34:41.012Z,20.87
2022-09-16T09:37:39.308Z,21.05
2022-09-16T09:40:17.016Z,21.23
2022-09-16T09:42:51.977Z,21.35
2022-09-16T09:45:27.570Z,21.52
2022-09-16T09:48:04.913Z,21.52
2022-09-16T09:50:43.741Z,21.42
2022-09-16T09:53:20.096Z,21.34
2022-09-16T09:55:52.152Z,21.49
2022-09-16T09:58:32.181Z,21.20
2022-09-16T10:01:01.510Z,21.24
2022-09-16T10:03:32.069Z,21.18
2022-09-16T10:06:02.876Z,21.13
2022-09-16T10:08:42.625Z,21.46
2022-09-16T10:11:20.141Z,21.72
2022-09-16T10:13:51.554Z,22.25
2022-09-16T10:16:23.620Z,22.49
2022-09-16T10:19:02.859Z,22.77
2022-09-16T10:21:47.123Z,23.17
2022-09-16T10:24:38.992Z,23.11
2022-09-16T10:27:22.994Z,23.81
2022-09-16T10:30:13.204Z,23.64
2022-09-16T10:32:51.701Z,23.18
2022-09-16T10:35:24.420Z,23.03
2022-09-16T10:37:58.288Z,23.06
2022-09-16T10:40:28.439Z,22.88
2022-09-16T10:43:03.402Z,22.88
2022-09-16T10:45:36.775Z,22.63
2022-09-16T10:48:14.514Z,22.50
2022-09-16T10:50:55.685Z,22.29
2022-09-16T10:53:32.637Z,21.88
2022-09-16T10:56:05.808Z,21.34
2022-09-16T10:58:35.133Z,21.41
2022-09-16T11:01:29.126Z,21.33
2022-09-16T11:04:25.471Z,21.73
2022-09-16T11:07:11.392Z,21.57
2022-09-16T11:09:56.245Z,21.70
2022-09-16T11:12:54.335Z,22.10
2022-09-16T11:15:37.733Z,22.58
2022-09-16T11:18:34.410Z,23.20
2022-09-16T11:21:31.893Z,23.53
2022-09-16T11:24:43.582Z,23.44
2022-09-16T11:27:25.422Z,23.75
2022-09-16T11:30:05.340Z,23.27
2022-09-16T11:32:56.568Z,22.98
2022-09-16T11:36:00.986Z,22.96
2022-09-16T11:38:42.466Z,23.29
2022-09-16T11:41:23.430Z,23.96
2022-09-16T11:44:24.058Z,24.33
2022-09-16T11:47:09.989Z,23.82
2022-09-16T11:49:58.454Z,23.11
2022-09-16T11:52:49.870Z,22.73
2022-09-16T11:55:35.901Z,22.61
2022-09-16T11:58:23.038Z,23.26
2022-09-16T12:00:57.337Z,24.29
2022-09-16T12:03:33.453Z,24.68
2022-09-16T12:06:11.292Z,24.22
2022-09-16T12:08:55.236Z,23.52
2022-09-16T12:11:33.239Z,23.35
2022-09-16T12:14:14.338Z,23.52
2022-09-16T12:16:50.630Z,24.15
2022-09-16T12:19:25.433Z,24.57
2022-09-16T12:22:01.175Z,23.86
2022-09-16T12:24:38.492Z,22.95
2022-09-16T12:27:20.240Z,22.65
2022-09-16T12:29:56.701Z,22.10
2022-09-16T12:32:39.001Z,21.73
2022-09-16T12:35:17.285Z,21.95
2022-09-16T12:37:50.439Z,22.63
2022-09-16T12:40:26.659Z,23.06
2022-09-16T12:43:40.306Z,22.75
2022-09-16T12:46:37.152Z,22.19
2022-09-16T12:50:02.209Z,22.60
2022-09-16T12:52:55.769Z,23.18
2022-09-16T12:55:44.706Z,23.74
2022-09-16T12:58:48.022Z,24.58
2022-09-16T13:01:25.229Z,24.68
2022-09-16T13:03:58.584Z,24.71
2022-09-16T13:06:31.781Z,24.80
2022-09-16T13:09:21.196Z,25.21
2022-09-16T13:14:50.371Z,25.52
2022-09-16T13:17:30.788Z,24.83
2022-09-16T13:20:08.729Z,24.23
2022-09-16T13:22:47.664Z,23.68
2022-09-16T13:25:25.165Z,22.97
2022-09-16T13:27:58.940Z,23.08
2022-09-16T13:30:37.526Z,22.86
2022-09-16T13:33:29.493Z,22.38
2022-09-16T13:36:33.220Z,22.01
2022-09-16T13:39:06.805Z,22.14
2022-09-16T13:41:38.955Z,22.48
2022-09-16T13:44:31.699Z,23.38
2022-09-16T13:47:40.417Z,24.29
2022-09-16T13:50:17.153Z,24.49
2022-09-16T13:52:46.408Z,24.13
2022-09-16T13:55:25.045Z,23.48
2022-09-16T13:58:06.480Z,23.01
2022-09-16T14:00:47.254Z,22.45
2022-09-16T14:03:47.873Z,22.15
2022-09-16T14:06:42.028Z,22.53
2022-09-16T14:09:29.202Z,23.35
2022-09-16T14:12:18.215Z,23.72
2022-09-16T14:14:48.340Z,24.13
2022-09-16T14:17:23.825Z,24.41
2022-09-16T14:19:58.560Z,24.42
2022-09-16T14:22:29.029Z,24.19
2022-09-16T14:25:06.508Z,24.48
2022-09-16T14:27:43.864Z,24.88
2022-09-16T14:30:18.092Z,24.86
2022-09-16T14:32:49.867Z,24.21
2022-09-16T14:35:24.244Z,23.99
2022-09-16T14:37:57.237Z,24.27
2022-09-16T14:40:28.485Z,24.64
2022-09-16T14:43:05.721Z,24.53
2022-09-16T14:45:38.428Z,24.13
2022-09-16T14:48:11.329Z,23.89
2022-09-16T14:50:45.492Z,23.88
2022-09-16T14:53:37.522Z,23.46
2022-09-16T14:56:07.523Z,23.13
2022-09-16T14:58:38.676Z,23.25
2022-09-16T15:01:15.716Z,23.08
2022-09-16T15:03:49.970Z,22.76
2022-09-16T15:06:25.345Z,22.93
2022-09-16T15:08:59.884Z,23.28
2022-09-16T15:11:47.478Z,23.97
2022-09-16T15:14:20.087Z,24.35
2022-09-16T15:16:54.102Z,24.70
2022-09-16T15:19:27.289Z,25.20
2022-09-16T15:21:56.799Z,25.49
2022-09-16T15:24:31.295Z,25.71
2022-09-16T15:27:01.817Z,25.74
2022-09-16T15:29:35.555Z,25.84
2022-09-16T15:32:19.605Z,25.86
2022-09-16T15:34:49.831Z,25.45
2022-09-16T15:37:32.397Z,25.14
2022-09-16T15:40:25.414Z,24.83
2022-09-16T15:43:18.021Z,24.44
2022-09-16T15:46:01.483Z,23.91
2022-09-16T15:48:35.093Z,23.59
2022-09-16T15:51:09.365Z,23.21
2022-09-16T15:53:46.903Z,22.85
2022-09-16T15:56:26.839Z,22.72
2022-09-16T15:59:00.629Z,22.61
2022-09-16T16:01:50.978Z,22.31
2022-09-16T16:04:29.770Z,22.29
2022-09-16T16:07:01.178Z,22.21
2022-09-16T16:09:40.060Z,22.01
2022-09-16T16:12:12.982Z,21.88
2022-09-16T16:14:42.902Z,21.74
2022-09-16T16:17:16.553Z,21.62
2022-09-16T16:19:47.651Z,21.54
2022-09-16T16:22:17.667Z,21.42
2022-09-16T16:24:46.834Z,21.31
2022-09-16T16:27:16.152Z,21.17
2022-09-16T16:29:45.247Z,21.09
2022-09-16T16:32:17.634Z,20.94
2022-09-16T16:34:50.160Z,20.95
2022-09-16T16:37:40.651Z,20.93
2022-09-16T16:40:10.639Z,20.90
2022-09-16T16:42:40.405Z,20.81
2022-09-16T16:45:10.952Z,20.66
2022-09-16T16:47:41.467Z,20.59
2022-09-16T16:50:11.564Z,20.62
2022-09-16T16:52:40.767Z,20.57
2022-09-16T16:55:10.996Z,20.44
2022-09-16T16:57:40.166Z,20.56
2022-09-16T17:00:11.831Z,20.50
2022-09-16T17:02:42.621Z,20.50
2022-09-16T17:05:12.425Z,20.48
2022-09-16T17:07:41.696Z,20.39
2022-09-16T17:10:11.650Z,20.28
2022-09-16T17:12:40.795Z,20.25
2022-09-16T17:15:10.987Z,20.19
2022-09-16T17:17:41.661Z,20.06
2022-09-16T17:20:11.337Z,20.01
2022-09-16T17:22:41.423Z,20.01
2022-09-16T17:25:11.020Z,20.10
2022-09-16T17:27:40.246Z,20.11
2022-09-16T17:30:10.389Z,20.10
2022-09-16T17:32:39.568Z,19.99
2022-09-16T17:35:11.070Z,19.89
2022-09-16T17:37:40.309Z,19.77
2022-09-16T17:40:10.286Z,19.70
2022-09-16T17:42:39.450Z,19.61
2022-09-16T17:45:09.783Z,19.55
2022-09-16T17:47:38.994Z,19.58
2022-09-16T17:50:10.700Z,19.59
2022-09-16T17:52:39.970Z,19.56
2022-09-16T17:55:09.876Z,19.52
2022-09-16T17:57:39.197Z,19.44
2022-09-16T18:00:10.398Z,19.33
2022-09-16T18:02:43.079Z,19.25
2022-09-16T18:05:14.510Z,18.97
2022-09-16T18:07:47.264Z,19.02
2022-09-16T18:10:16.652Z,18.77
2022-09-16T18:12:45.857Z,18.83
2022-09-16T18:15:15.154Z,18.55
2022-09-16T18:17:44.394Z,18.67
2022-09-16T18:20:14.959Z,18.57
2022-09-16T18:22:44.167Z,18.52
2022-09-16T18:25:13.340Z,18.39
2022-09-16T18:27:44.319Z,18.31
2022-09-16T18:30:16.771Z,18.11
2022-09-16T18:32:45.930Z,18.06
2022-09-16T18:35:16.724Z,17.88
2022-09-16T18:37:46.586Z,17.70
2022-09-16T18:40:16.017Z,17.68
2022-09-16T18:42:45.374Z,17.58
2022-09-16T18:45:14.608Z,17.53
2022-09-16T18:47:43.794Z,17.40
2022-09-16T18:50:12.918Z,17.31
2022-09-16T18:52:43.620Z,17.26
2022-09-16T18:55:12.769Z,16.91
2022-09-16T18:57:42.094Z,17.08
2022-09-16T19:00:13.270Z,17.09
2022-09-16T19:02:43.475Z,16.96
2022-09-16T19:05:12.851Z,16.96
2022-09-16T19:07:43.372Z,16.91
2022-09-16T19:10:12.538Z,16.88
2022-09-16T19:12:41.814Z,16.84
2022-09-16T19:15:12.205Z,16.68
2022-09-16T19:17:41.402Z,16.65
2022-09-16T19:20:11.530Z,16.78
2022-09-16T19:22:42.262Z,16.73
2022-09-16T19:25:11.511Z,16.79
2022-09-16T19:27:40.699Z,16.75
2022-09-16T19:30:11.255Z,16.71
2022-09-16T19:32:40.916Z,16.62
2022-09-16T19:35:10.335Z,16.39
2022-09-16T19:37:39.824Z,16.49
2022-09-16T19:40:11.904Z,16.43
2022-09-16T19:42:41.088Z,16.33
2022-09-16T19:45:11.438Z,16.34
2022-09-16T19:47:40.965Z,16.21
2022-09-16T19:50:11.827Z,16.23
2022-09-16T19:52:41.583Z,16.11
2022-09-16T19:55:12.216Z,16.10
2022-09-16T19:57:41.368Z,16.03
2022-09-16T20:00:15.627Z,15.90
2022-09-16T20:02:46.182Z,15.88
2022-09-16T20:05:15.583Z,15.87
2022-09-16T20:07:44.793Z,15.79
2022-09-16T20:10:16.203Z,15.81
2022-09-16T20:12:45.373Z,15.78
2022-09-16T20:15:14.862Z,15.74
2022-09-16T20:17:44.013Z,15.69
2022-09-16T20:20:13.239Z,15.62
2022-09-16T20:22:42.524Z,15.56
2022-09-16T20:25:22.895Z,15.47
2022-09-16T20:27:54.339Z,15.43
2022-09-16T20:30:23.553Z,15.06
2022-09-16T20:32:53.814Z,15.39
2022-09-16T20:35:23.248Z,15.34
2022-09-16T20:37:52.506Z,15.26
2022-09-16T20:40:21.722Z,15.27
2022-09-16T20:42:50.998Z,15.28
2022-09-16T20:45:21.477Z,15.05
2022-09-16T20:47:53.433Z,15.18
2022-09-16T20:50:22.857Z,15.17
2022-09-16T20:52:51.965Z,15.14
2022-09-16T20:55:21.303Z,14.74
2022-09-16T20:57:51.096Z,14.96
2022-09-16T21:00:22.549Z,15.01
2022-09-16T21:02:54.640Z,14.92
2022-09-16T21:05:23.860Z,14.92
2022-09-16T21:07:53.088Z,14.89
2022-09-16T21:10:23.198Z,14.90
2022-09-16T21:12:54.048Z,14.91
2022-09-16T21:15:24.553Z,14.85
2022-09-16T21:17:55.600Z,14.84
2022-09-16T21:20:24.759Z,14.82
2022-09-16T21:22:53.906Z,14.79
2022-09-16T21:25:24.853Z,14.74
2022-09-16T21:27:55.221Z,14.75
2022-09-16T21:30:26.273Z,14.71
2022-09-16T21:32:57.276Z,14.68
2022-09-16T21:35:27.476Z,14.71
2022-09-16T21:37:57.579Z,14.70
2022-09-16T21:40:27.304Z,14.68
2022-09-16T21:42:56.710Z,14.70
2022-09-16T21:45:27.822Z,14.56
2022-09-16T21:47:57.699Z,14.67
2022-09-16T21:50:26.893Z,14.63
2022-09-16T21:52:56.228Z,14.57
2022-09-16T21:55:25.381Z,14.40
2022-09-16T21:57:54.525Z,14.29
2022-09-16T22:00:23.696Z,14.41
2022-09-16T22:02:56.403Z,14.41
2022-09-16T22:05:25.393Z,14.34
2022-09-16T22:07:54.504Z,14.31
2022-09-16T22:10:23.870Z,14.31
2022-09-16T22:12:53.115Z,14.32
2022-09-16T22:15:22.799Z,14.27
2022-09-16T22:17:54.251Z,14.24
2022-09-16T22:20:24.882Z,14.09
2022-09-16T22:22:56.348Z,14.16
2022-09-16T22:25:25.694Z,14.06
2022-09-16T22:27:54.792Z,13.72
2022-09-16T22:30:24.024Z,14.08
2022-09-16T22:32:54.686Z,14.05
2022-09-16T22:35:23.898Z,14.03
2022-09-16T22:37:53.177Z,13.98
2022-09-16T22:40:22.526Z,13.91
2022-09-16T22:42:51.855Z,13.95
2022-09-16T22:45:21.067Z,13.77
2022-09-16T22:47:50.396Z,13.74
2022-09-16T22:50:20.905Z,13.72
2022-09-16T22:52:50.007Z,13.68
2022-09-16T22:55:19.122Z,13.63
2022-09-16T22:57:48.230Z,13.59
2022-09-16T23:00:17.648Z,13.52
2022-09-16T23:02:46.838Z,13.56
2022-09-16T23:05:16.502Z,13.45
2022-09-16T23:07:47.732Z,13.54
2022-09-16T23:10:17.064Z,13.55
2022-09-16T23:12:46.248Z,13.52
2022-09-16T23:15:16.289Z,13.36
2022-09-16T23:17:45.456Z,13.57
2022-09-16T23:20:14.652Z,13.54
2022-09-16T23:22:43.734Z,13.53
2022-09-16T23:25:14.243Z,13.40
2022-09-16T23:27:43.345Z,13.44
2022-09-16T23:30:14.004Z,13.40
2022-09-16T23:32:43.140Z,13.35
2022-09-16T23:35:12.350Z,13.33
2022-09-16T23:37:42.410Z,13.13
2022-09-16T23:40:13.464Z,13.21
2022-09-16T23:42:42.872Z,13.11
2022-09-16T23:45:12.350Z,13.13
2022-09-16T23:47:41.641Z,13.12
2022-09-16T23:50:11.998Z,13.18
2022-09-16T23:52:41.224Z,13.15
2022-09-16T23:55:11.015Z,13.13
2022-09-16T23:57:42.523Z,13.10
